Terminal Aerodrome Forecast
Issued by NWS

Home | Current Version | Previous Version | Graphics & Text | Print | Product List | Glossary On
Versions: 1 2 3 4 5 6 7 8 9 10 11 12 13 14 15 16 17 18
800
FTUS43 KICT 201745
TAFSLN
TAF
KSLN 201745Z 2018/2118 36008KT P6SM OVC015
      TEMPO 2022/2102 SCT015 BKN035
     FM210900 06005KT 5SM BR OVC008
     FM211500 15006KT P6SM SCT020 BKN050=

USA.gov is the U.S. government's official web portal to all federal, state and local government web resources and services.